createdAt,value
2023-05-18T00:00:24.798Z,0.20
2023-05-18T00:02:51.426Z,0.20
2023-05-18T00:05:18.874Z,0.30
2023-05-18T00:07:46.631Z,0.40
2023-05-18T00:10:13.300Z,0.35
2023-05-18T00:12:39.956Z,0.22
2023-05-18T00:15:07.253Z,0.30
2023-05-18T00:17:33.864Z,0.40
2023-05-18T00:20:01.014Z,0.30
2023-05-18T00:22:27.716Z,0.50
2023-05-18T00:24:54.320Z,0.30
2023-05-18T00:27:21.017Z,0.30
2023-05-18T00:29:47.637Z,0.30
2023-05-18T00:32:14.257Z,0.30
2023-05-18T00:34:40.924Z,0.30
2023-05-18T00:37:07.580Z,0.40
2023-05-18T00:39:34.214Z,0.35
2023-05-18T00:42:02.694Z,0.30
2023-05-18T00:44:29.365Z,0.40
2023-05-18T00:46:56.333Z,0.50
2023-05-18T00:49:23.161Z,0.30
2023-05-18T00:51:49.908Z,0.52
2023-05-18T00:54:16.837Z,0.30
2023-05-18T00:56:46.222Z,0.40
2023-05-18T00:59:13.050Z,1.20
2023-05-18T01:01:43.924Z,0.80
2023-05-18T01:04:14.366Z,0.60
2023-05-18T01:06:42.199Z,0.40
2023-05-18T01:09:12.101Z,0.40
2023-05-18T01:11:53.603Z,0.50
2023-05-18T01:14:33.447Z,0.50
2023-05-18T01:17:12.694Z,0.30
2023-05-18T01:19:58.193Z,0.38
2023-05-18T01:22:56.409Z,0.40
2023-05-18T01:25:54.141Z,0.35
2023-05-18T01:28:27.460Z,0.50
2023-05-18T01:30:55.123Z,0.40
2023-05-18T01:33:22.277Z,0.50
2023-05-18T01:35:49.075Z,0.40
2023-05-18T01:38:22.504Z,0.45
2023-05-18T01:40:59.940Z,0.50
2023-05-18T01:43:36.161Z,0.60
2023-05-18T01:46:19.722Z,0.40
2023-05-18T01:48:54.241Z,0.45
2023-05-18T01:51:24.556Z,0.52
2023-05-18T01:53:58.654Z,0.60
2023-05-18T01:56:26.289Z,0.75
2023-05-18T01:58:53.518Z,0.60
2023-05-18T02:01:22.855Z,0.63
2023-05-18T02:03:53.418Z,0.60
2023-05-18T02:06:22.901Z,0.80
2023-05-18T02:08:49.774Z,0.47
2023-05-18T02:11:17.198Z,0.63
2023-05-18T02:13:43.921Z,0.70
2023-05-18T02:16:11.975Z,1.00
2023-05-18T02:18:38.868Z,0.52
2023-05-18T02:21:05.598Z,0.80
2023-05-18T02:23:32.381Z,0.80
2023-05-18T02:25:59.141Z,0.82
2023-05-18T02:28:25.972Z,1.13
2023-05-18T02:30:52.745Z,1.00
2023-05-18T02:33:19.714Z,1.00
2023-05-18T02:35:46.671Z,1.17
2023-05-18T02:38:13.587Z,1.02
2023-05-18T02:40:40.725Z,1.30
2023-05-18T02:43:07.428Z,1.10
2023-05-18T02:45:34.261Z,1.02
2023-05-18T02:48:01.627Z,1.10
2023-05-18T02:50:28.658Z,1.20
2023-05-18T02:52:56.129Z,2.13
2023-05-18T02:55:23.125Z,1.67
2023-05-18T02:58:14.179Z,1.10
2023-05-18T03:00:57.539Z,1.10
2023-05-18T03:03:25.928Z,1.40
2023-05-18T03:05:53.665Z,1.20
2023-05-18T03:08:23.256Z,1.15
2023-05-18T03:10:50.405Z,1.52
2023-05-18T03:13:17.512Z,1.30
2023-05-18T03:15:47.106Z,1.20
2023-05-18T03:18:14.069Z,1.20
2023-05-18T03:20:40.907Z,1.20
2023-05-18T03:23:07.588Z,1.20
2023-05-18T03:25:37.401Z,1.30
2023-05-18T03:28:05.656Z,1.50
2023-05-18T03:30:33.897Z,1.40
2023-05-18T03:33:02.035Z,1.27
2023-05-18T03:35:30.437Z,1.50
2023-05-18T03:37:57.500Z,1.23
2023-05-18T03:40:25.005Z,1.27
2023-05-18T03:42:51.862Z,1.33
2023-05-18T03:45:18.952Z,1.38
2023-05-18T03:47:45.815Z,1.70
2023-05-18T03:50:13.006Z,1.50
2023-05-18T03:52:41.561Z,1.38
2023-05-18T03:55:08.691Z,1.20
2023-05-18T03:57:35.299Z,1.20
2023-05-18T04:00:06.930Z,1.40
2023-05-18T04:02:43.963Z,1.30
2023-05-18T04:05:12.150Z,1.48
2023-05-18T04:07:44.070Z,1.60
2023-05-18T04:10:12.195Z,1.50
2023-05-18T04:12:39.827Z,1.20
2023-05-18T04:15:07.066Z,1.77
2023-05-18T04:17:35.531Z,1.10
2023-05-18T04:20:06.362Z,1.63
2023-05-18T04:22:33.162Z,1.30
2023-05-18T04:25:01.833Z,1.17
2023-05-18T04:27:29.619Z,1.38
2023-05-18T04:29:56.589Z,1.30
2023-05-18T04:32:26.923Z,1.05
2023-05-18T04:34:54.868Z,1.58
2023-05-18T04:37:22.329Z,1.30
2023-05-18T04:39:49.087Z,1.40
2023-05-18T04:42:18.525Z,1.30
2023-05-18T04:44:45.648Z,1.10
2023-05-18T04:47:12.288Z,0.93
2023-05-18T04:49:39.008Z,1.38
2023-05-18T04:52:08.055Z,1.13
2023-05-18T04:54:34.993Z,1.40
2023-05-18T04:57:03.678Z,1.20
2023-05-18T04:59:30.369Z,1.00
2023-05-18T05:01:57.016Z,1.10
2023-05-18T05:04:24.799Z,1.00
2023-05-18T05:06:51.471Z,1.45
2023-05-18T05:09:18.278Z,1.10
2023-05-18T05:11:45.747Z,1.05
2023-05-18T05:14:13.396Z,1.10
2023-05-18T05:16:40.828Z,1.02
2023-05-18T05:19:07.521Z,1.20
2023-05-18T05:21:34.339Z,0.82
2023-05-18T05:24:05.023Z,1.20
2023-05-18T05:26:32.097Z,1.15
2023-05-18T05:28:58.713Z,0.93
2023-05-18T05:31:25.473Z,1.10
2023-05-18T05:33:52.154Z,0.80
2023-05-18T05:36:18.885Z,0.80
2023-05-18T05:38:45.807Z,0.90
2023-05-18T05:41:12.416Z,1.13
2023-05-18T05:43:39.207Z,1.02
2023-05-18T05:46:06.271Z,1.10
2023-05-18T05:48:33.256Z,0.88
2023-05-18T05:51:00.588Z,1.00
2023-05-18T05:53:29.698Z,1.00
2023-05-18T05:55:56.779Z,1.00
2023-05-18T05:58:23.449Z,1.20
2023-05-18T06:00:54.532Z,1.05
2023-05-18T06:03:21.980Z,0.70
2023-05-18T06:05:49.354Z,0.90
2023-05-18T06:08:18.263Z,0.93
2023-05-18T06:10:46.202Z,0.70
2023-05-18T06:13:13.454Z,0.70
2023-05-18T06:15:46.601Z,0.63
2023-05-18T06:18:13.833Z,0.90
2023-05-18T06:20:40.941Z,0.82
2023-05-18T06:23:07.609Z,0.65
2023-05-18T06:25:57.388Z,0.68
2023-05-18T06:28:33.130Z,0.88
2023-05-18T06:31:23.841Z,0.60
2023-05-18T06:33:55.532Z,0.80
2023-05-18T06:36:22.726Z,0.63
2023-05-18T06:38:49.488Z,0.60
2023-05-18T06:41:16.108Z,0.70
2023-05-18T06:43:43.066Z,0.60
2023-05-18T06:46:22.451Z,0.70
2023-05-18T06:48:53.202Z,0.60
2023-05-18T06:51:20.256Z,0.60
2023-05-18T06:53:47.410Z,0.60
2023-05-18T06:56:14.661Z,0.60
2023-05-18T06:58:43.448Z,0.63
2023-05-18T07:01:11.060Z,0.50
2023-05-18T07:03:37.778Z,0.63
2023-05-18T07:06:05.102Z,0.77
2023-05-18T07:08:32.189Z,0.60
2023-05-18T07:10:59.415Z,0.60
2023-05-18T07:13:26.256Z,0.70
2023-05-18T07:15:52.924Z,0.70
2023-05-18T07:18:19.564Z,0.52
2023-05-18T07:20:46.177Z,0.50
2023-05-18T07:23:13.550Z,0.70
2023-05-18T07:25:40.568Z,0.60
2023-05-18T07:28:07.303Z,0.70
2023-05-18T07:30:34.186Z,0.60
2023-05-18T07:33:00.889Z,0.68
2023-05-18T07:35:27.751Z,0.63
2023-05-18T07:37:54.576Z,0.90
2023-05-18T07:40:21.373Z,0.70
2023-05-18T07:42:47.948Z,0.77
2023-05-18T07:45:14.561Z,0.80
2023-05-18T07:47:41.592Z,0.98
2023-05-18T07:50:08.898Z,0.52
2023-05-18T07:52:35.552Z,0.90
2023-05-18T07:55:02.700Z,0.60
2023-05-18T07:57:30.981Z,0.70
2023-05-18T07:59:57.634Z,0.60
2023-05-18T08:02:24.758Z,0.88
2023-05-18T08:04:51.966Z,0.70
2023-05-18T08:07:18.624Z,0.60
2023-05-18T08:09:45.277Z,0.60
2023-05-18T08:12:11.893Z,0.60
2023-05-18T08:14:38.516Z,0.88
2023-05-18T08:17:05.441Z,0.60
2023-05-18T08:19:32.161Z,0.50
2023-05-18T08:21:58.912Z,0.77
2023-05-18T08:24:25.542Z,0.70
2023-05-18T08:26:52.555Z,0.43
2023-05-18T08:29:19.289Z,0.80
2023-05-18T08:31:48.452Z,0.50
2023-05-18T08:34:16.193Z,0.68
2023-05-18T08:36:45.540Z,0.60
2023-05-18T08:39:12.967Z,0.57
2023-05-18T08:41:49.671Z,0.60
2023-05-18T08:44:26.241Z,0.60
2023-05-18T08:46:54.856Z,0.50
2023-05-18T08:49:22.085Z,0.70
2023-05-18T08:51:57.665Z,0.90
2023-05-18T08:54:24.913Z,0.55
2023-05-18T08:56:53.100Z,0.52
2023-05-18T08:59:24.615Z,0.50
2023-05-18T09:01:52.395Z,0.60
2023-05-18T09:04:20.302Z,0.65
2023-05-18T09:06:48.789Z,0.70
2023-05-18T09:09:16.237Z,0.50
2023-05-18T09:11:43.358Z,0.50
2023-05-18T09:14:10.613Z,0.50
2023-05-18T09:16:37.492Z,0.40
2023-05-18T09:19:04.897Z,0.47
2023-05-18T09:21:32.820Z,0.70
2023-05-18T09:24:01.044Z,0.50
2023-05-18T09:26:27.803Z,0.70
2023-05-18T09:28:54.946Z,0.47
2023-05-18T09:31:24.622Z,0.50
2023-05-18T09:33:52.416Z,0.50
2023-05-18T09:36:25.183Z,0.47
2023-05-18T09:38:52.902Z,0.43
2023-05-18T09:41:19.607Z,0.47
2023-05-18T09:43:48.738Z,0.40
2023-05-18T09:46:15.392Z,0.43
2023-05-18T09:48:45.950Z,0.50
2023-05-18T09:51:16.598Z,0.40
2023-05-18T09:53:54.454Z,0.50
2023-05-18T09:56:22.932Z,0.45
2023-05-18T09:58:49.793Z,0.50
2023-05-18T10:01:19.054Z,0.35
2023-05-18T10:03:48.382Z,0.28
2023-05-18T10:06:19.869Z,0.30
2023-05-18T10:08:46.632Z,0.40
2023-05-18T10:11:17.218Z,0.50
2023-05-18T10:13:46.829Z,0.40
2023-05-18T10:16:15.503Z,0.30
2023-05-18T10:18:42.791Z,0.57
2023-05-18T10:21:12.500Z,0.47
2023-05-18T10:23:40.811Z,0.68
2023-05-18T10:26:09.933Z,0.40
2023-05-18T10:28:45.186Z,0.50
2023-05-18T10:31:13.221Z,0.47
2023-05-18T10:33:40.345Z,0.57
2023-05-18T10:36:09.005Z,0.50
2023-05-18T10:38:39.703Z,0.43
2023-05-18T10:41:07.696Z,0.57
2023-05-18T10:43:36.552Z,0.60
2023-05-18T10:46:07.493Z,0.55
2023-05-18T10:48:38.947Z,0.57
2023-05-18T10:51:07.410Z,0.57
2023-05-18T10:53:34.711Z,0.40
2023-05-18T10:56:01.632Z,0.47
2023-05-18T10:58:30.776Z,0.50
2023-05-18T11:00:59.587Z,0.45
2023-05-18T11:03:27.388Z,0.73
2023-05-18T11:06:15.072Z,0.40
2023-05-18T11:08:52.038Z,0.60
2023-05-18T11:11:24.231Z,0.50
2023-05-18T11:16:20.648Z,0.65
2023-05-18T11:18:52.519Z,0.55
2023-05-18T11:21:22.248Z,0.63
2023-05-18T11:24:14.174Z,0.50
2023-05-18T11:26:41.605Z,0.40
2023-05-18T11:29:20.166Z,0.55
2023-05-18T11:31:49.251Z,0.70
2023-05-18T11:34:42.381Z,0.50
2023-05-18T11:37:10.620Z,0.60
2023-05-18T11:39:44.771Z,0.55
2023-05-18T11:42:18.671Z,0.80
2023-05-18T11:44:51.981Z,0.45
2023-05-18T11:47:18.762Z,0.55
2023-05-18T11:49:46.999Z,0.52
2023-05-18T11:52:16.089Z,0.60
2023-05-18T11:54:49.531Z,0.60
2023-05-18T11:57:18.661Z,0.50
2023-05-18T11:59:47.802Z,0.70
2023-05-18T12:02:22.263Z,0.50
2023-05-18T12:04:51.981Z,0.57
2023-05-18T12:07:20.799Z,0.70
2023-05-18T12:09:48.463Z,0.70
2023-05-18T12:12:17.363Z,0.60
2023-05-18T12:14:46.653Z,0.80
2023-05-18T12:17:14.417Z,0.52
2023-05-18T12:19:45.204Z,0.65
2023-05-18T12:22:12.402Z,0.90
2023-05-18T12:24:43.891Z,0.75
2023-05-18T12:27:12.135Z,0.63
2023-05-18T12:29:40.656Z,0.82
2023-05-18T12:32:12.660Z,0.80
2023-05-18T12:34:39.699Z,0.60
2023-05-18T12:37:07.996Z,0.80
2023-05-18T12:39:36.637Z,0.77
2023-05-18T12:42:10.570Z,0.77
2023-05-18T12:44:37.863Z,0.82
2023-05-18T12:47:04.947Z,0.80
2023-05-18T12:49:37.179Z,0.90
2023-05-18T12:52:15.191Z,0.93
2023-05-18T12:55:00.017Z,0.85
2023-05-18T12:57:27.926Z,1.00
2023-05-18T12:59:54.884Z,0.90
2023-05-18T13:02:36.383Z,0.90
2023-05-18T13:05:07.642Z,0.80
2023-05-18T13:07:42.647Z,1.38
2023-05-18T13:10:11.648Z,1.00
2023-05-18T13:12:39.083Z,1.23
2023-05-18T13:15:24.493Z,1.40
2023-05-18T13:17:59.389Z,1.50
2023-05-18T13:20:40.468Z,1.50
2023-05-18T13:23:11.729Z,1.80
2023-05-18T13:25:42.251Z,1.70
2023-05-18T13:28:11.985Z,2.38
2023-05-18T13:30:39.954Z,2.05
2023-05-18T13:33:09.696Z,2.05
2023-05-18T13:35:44.001Z,2.80
2023-05-18T13:38:13.221Z,2.55
2023-05-18T13:40:40.923Z,2.50
2023-05-18T13:43:08.720Z,2.65
2023-05-18T13:45:36.560Z,2.95
2023-05-18T13:48:09.544Z,2.78
2023-05-18T13:50:36.815Z,2.70
2023-05-18T13:53:03.598Z,2.50
2023-05-18T13:55:30.631Z,2.47
2023-05-18T13:57:57.831Z,2.92
2023-05-18T14:00:24.940Z,9.57
2023-05-18T14:02:53.235Z,25.00
2023-05-18T14:05:20.565Z,3.13
2023-05-18T14:07:47.179Z,3.40
2023-05-18T14:10:13.844Z,2.90
2023-05-18T14:12:42.643Z,2.70
2023-05-18T14:15:10.982Z,3.00
2023-05-18T14:17:37.652Z,2.97
2023-05-18T14:20:08.150Z,2.90
2023-05-18T14:22:34.961Z,3.08
2023-05-18T14:25:01.552Z,2.90
2023-05-18T14:27:29.136Z,2.90
2023-05-18T14:29:55.921Z,2.42
2023-05-18T14:32:22.846Z,2.85
2023-05-18T14:34:55.337Z,2.97
2023-05-18T14:39:48.769Z,2.65
2023-05-18T14:42:15.701Z,3.05
2023-05-18T14:44:42.378Z,2.80
2023-05-18T14:47:10.372Z,2.97
2023-05-18T14:49:37.676Z,3.10
2023-05-18T14:52:04.541Z,3.05
2023-05-18T14:54:31.175Z,2.90
2023-05-18T14:56:57.855Z,2.97
2023-05-18T14:59:24.485Z,2.85
2023-05-18T15:01:51.196Z,3.15
2023-05-18T15:04:18.030Z,2.63
2023-05-18T15:06:44.728Z,3.10
2023-05-18T15:09:11.386Z,3.05
2023-05-18T15:11:38.035Z,2.97
2023-05-18T15:14:04.721Z,2.95
2023-05-18T15:16:31.753Z,3.42
2023-05-18T15:18:58.646Z,3.28
2023-05-18T15:21:25.494Z,3.10
2023-05-18T15:23:52.127Z,3.05
2023-05-18T15:26:18.789Z,3.00
2023-05-18T15:28:47.193Z,2.95
2023-05-18T15:31:14.045Z,2.78
2023-05-18T15:33:43.523Z,2.53
2023-05-18T15:36:10.381Z,3.00
2023-05-18T15:38:37.194Z,2.78
2023-05-18T15:41:04.016Z,3.08
2023-05-18T15:43:31.064Z,2.80
2023-05-18T15:45:58.360Z,2.78
2023-05-18T15:48:25.215Z,2.72
2023-05-18T15:50:51.920Z,3.30
2023-05-18T15:53:18.623Z,3.30
2023-05-18T15:55:45.325Z,3.10
2023-05-18T15:58:13.443Z,3.20
2023-05-18T16:00:40.160Z,3.05
2023-05-18T16:03:06.816Z,2.70
2023-05-18T16:05:33.934Z,2.60
2023-05-18T16:08:00.526Z,2.65
2023-05-18T16:10:27.146Z,3.17
2023-05-18T16:12:53.744Z,2.83
2023-05-18T16:15:24.279Z,2.75
2023-05-18T16:17:51.105Z,3.53
2023-05-18T16:20:18.493Z,2.72
2023-05-18T16:22:46.826Z,3.20
2023-05-18T16:25:13.627Z,2.60
2023-05-18T16:27:40.330Z,3.20
2023-05-18T16:30:07.738Z,3.53
2023-05-18T16:32:34.494Z,3.60
2023-05-18T16:35:02.102Z,3.40
2023-05-18T16:37:28.772Z,3.60
2023-05-18T16:39:55.471Z,3.38
2023-05-18T16:42:22.911Z,3.33
2023-05-18T16:44:49.634Z,3.40
2023-05-18T16:47:16.483Z,3.30
2023-05-18T16:49:45.412Z,2.58
2023-05-18T16:52:12.172Z,3.25
2023-05-18T16:54:38.853Z,3.13
2023-05-18T16:57:06.278Z,3.60
2023-05-18T16:59:34.383Z,6.85
2023-05-18T17:02:01.769Z,5.03
2023-05-18T17:04:28.503Z,6.88
2023-05-18T17:06:55.802Z,3.78
2023-05-18T17:09:22.515Z,4.05
2023-05-18T17:11:49.206Z,3.72
2023-05-18T17:14:15.817Z,3.90
2023-05-18T17:16:42.581Z,4.57
2023-05-18T17:19:09.534Z,4.40
2023-05-18T17:21:36.192Z,4.28
2023-05-18T17:24:02.895Z,4.22
2023-05-18T17:26:30.730Z,4.03
2023-05-18T17:28:57.488Z,4.20
2023-05-18T17:31:24.216Z,3.83
2023-05-18T17:33:51.019Z,3.80
2023-05-18T17:36:18.320Z,3.45
2023-05-18T17:38:45.291Z,3.80
2023-05-18T17:41:11.986Z,4.13
2023-05-18T17:43:38.687Z,4.32
2023-05-18T17:46:05.426Z,3.50
2023-05-18T17:48:32.189Z,3.65
2023-05-18T17:50:59.198Z,3.67
2023-05-18T17:53:26.533Z,3.70
2023-05-18T17:55:53.162Z,4.57
2023-05-18T17:58:19.778Z,4.15
2023-05-18T18:00:46.541Z,4.20
2023-05-18T18:03:14.015Z,4.32
2023-05-18T18:05:40.875Z,4.50
2023-05-18T18:08:07.523Z,4.65
2023-05-18T18:10:34.776Z,22.25
2023-05-18T18:13:01.565Z,10.00
2023-05-18T18:15:28.966Z,4.68
2023-05-18T18:17:56.580Z,4.80
2023-05-18T18:20:23.528Z,4.80
2023-05-18T18:22:50.140Z,4.47
2023-05-18T18:25:16.760Z,4.22
2023-05-18T18:27:43.745Z,4.07
2023-05-18T18:30:11.052Z,4.18
2023-05-18T18:32:37.749Z,4.28
2023-05-18T18:35:04.686Z,4.28
2023-05-18T18:37:31.411Z,4.45
2023-05-18T18:39:58.154Z,3.70
2023-05-18T18:42:24.857Z,4.72
2023-05-18T18:44:56.481Z,4.60
2023-05-18T18:47:23.612Z,4.47
2023-05-18T18:49:50.362Z,4.90
2023-05-18T18:52:16.972Z,4.38
2023-05-18T18:54:43.715Z,4.47
2023-05-18T18:57:12.054Z,4.55
2023-05-18T18:59:39.406Z,4.88
2023-05-18T19:02:06.299Z,4.30
2023-05-18T19:04:33.021Z,4.28
2023-05-18T19:07:02.889Z,4.28
2023-05-18T19:09:32.731Z,4.28
2023-05-18T19:11:59.428Z,4.60
2023-05-18T19:14:26.066Z,4.20
2023-05-18T19:16:53.013Z,4.68
2023-05-18T19:19:19.741Z,4.28
2023-05-18T19:21:46.940Z,4.05
2023-05-18T19:24:13.644Z,3.90
2023-05-18T19:26:40.407Z,5.05
2023-05-18T19:29:07.087Z,4.57
2023-05-18T19:31:37.787Z,4.45
2023-05-18T19:34:04.575Z,4.50
2023-05-18T19:36:31.545Z,4.15
2023-05-18T19:38:58.196Z,4.18
2023-05-18T19:41:25.032Z,4.25
2023-05-18T19:43:51.709Z,4.28
2023-05-18T19:46:19.235Z,4.03
2023-05-18T19:48:46.099Z,4.05
2023-05-18T19:51:12.746Z,4.07
2023-05-18T19:53:39.422Z,4.13
2023-05-18T19:56:06.165Z,4.40
2023-05-18T19:58:32.800Z,5.00
2023-05-18T20:00:59.751Z,4.22
2023-05-18T20:03:27.403Z,4.10
2023-05-18T20:05:56.095Z,4.22
2023-05-18T20:08:22.960Z,4.10
2023-05-18T20:10:49.881Z,4.38
2023-05-18T20:13:16.503Z,4.75
2023-05-18T20:15:43.748Z,4.55
2023-05-18T20:18:10.510Z,4.55
2023-05-18T20:20:37.745Z,4.43
2023-05-18T20:23:06.815Z,4.68
2023-05-18T20:25:35.100Z,4.32
2023-05-18T20:28:08.406Z,4.55
2023-05-18T20:30:35.067Z,4.53
2023-05-18T20:33:04.096Z,4.15
2023-05-18T20:35:31.478Z,4.70
2023-05-18T20:37:59.674Z,4.85
2023-05-18T20:40:27.741Z,5.28
2023-05-18T20:42:54.457Z,5.30
2023-05-18T20:45:22.710Z,5.20
2023-05-18T20:47:52.660Z,5.07
2023-05-18T20:50:20.478Z,4.28
2023-05-18T20:52:47.480Z,5.38
2023-05-18T20:55:14.851Z,4.60
2023-05-18T20:57:44.727Z,4.53
2023-05-18T21:00:12.800Z,4.22
2023-05-18T21:02:41.527Z,5.32
2023-05-18T21:05:08.591Z,5.53
2023-05-18T21:07:37.896Z,5.22
2023-05-18T21:10:05.141Z,4.25
2023-05-18T21:12:31.982Z,4.93
2023-05-18T21:14:58.692Z,4.75
2023-05-18T21:17:25.631Z,5.35
2023-05-18T21:19:52.739Z,5.38
2023-05-18T21:22:20.037Z,4.90
2023-05-18T21:24:46.646Z,5.13
2023-05-18T21:27:13.348Z,5.90
2023-05-18T21:29:40.032Z,5.90
2023-05-18T21:32:06.953Z,5.03
2023-05-18T21:34:33.642Z,5.22
2023-05-18T21:37:01.166Z,5.18
2023-05-18T21:39:27.785Z,5.65
2023-05-18T21:41:54.483Z,5.32
2023-05-18T21:44:21.108Z,5.80
2023-05-18T21:46:47.746Z,5.22
2023-05-18T21:49:14.437Z,5.45
2023-05-18T21:51:41.090Z,5.03
2023-05-18T21:54:07.674Z,5.82
2023-05-18T21:56:35.004Z,5.10
2023-05-18T21:59:01.629Z,5.60
2023-05-18T22:01:28.315Z,5.40
2023-05-18T22:03:54.994Z,4.97
2023-05-18T22:06:22.572Z,5.72
2023-05-18T22:08:49.297Z,5.70
2023-05-18T22:11:16.360Z,4.70
2023-05-18T22:13:43.208Z,5.50
2023-05-18T22:16:09.928Z,4.47
2023-05-18T22:18:36.535Z,5.50
2023-05-18T22:21:03.203Z,4.78
2023-05-18T22:23:29.936Z,5.13
2023-05-18T22:25:56.928Z,4.65
2023-05-18T22:28:23.553Z,5.13
2023-05-18T22:30:52.942Z,5.25
2023-05-18T22:33:21.221Z,5.57
2023-05-18T22:35:48.119Z,5.65
2023-05-18T22:38:15.111Z,5.20
2023-05-18T22:40:41.721Z,5.80
2023-05-18T22:43:08.403Z,5.43
2023-05-18T22:45:35.130Z,5.53
2023-05-18T22:48:02.267Z,5.60
2023-05-18T22:50:29.175Z,5.80
2023-05-18T22:52:55.788Z,5.78
2023-05-18T22:55:22.400Z,5.78
2023-05-18T22:57:49.043Z,5.85
2023-05-18T23:00:16.510Z,5.60
2023-05-18T23:02:43.199Z,5.68
2023-05-18T23:05:10.219Z,5.90
2023-05-18T23:07:37.630Z,5.88
2023-05-18T23:10:05.761Z,5.28
2023-05-18T23:12:33.140Z,5.32
2023-05-18T23:15:02.551Z,5.53
2023-05-18T23:17:30.364Z,5.43
2023-05-18T23:20:06.821Z,5.22
2023-05-18T23:22:34.863Z,5.45
2023-05-18T23:25:02.164Z,5.53
2023-05-18T23:27:28.811Z,5.45
2023-05-18T23:29:55.469Z,5.57
2023-05-18T23:32:22.358Z,5.60
2023-05-18T23:34:49.427Z,5.22
2023-05-18T23:37:18.526Z,5.50
2023-05-18T23:39:46.014Z,5.90
2023-05-18T23:42:13.700Z,5.82
2023-05-18T23:44:41.022Z,5.97
2023-05-18T23:47:08.038Z,5.60
2023-05-18T23:49:34.883Z,5.80
2023-05-18T23:52:02.477Z,5.45
2023-05-18T23:54:29.771Z,5.68
2023-05-18T23:56:56.952Z,6.00
2023-05-18T23:59:24.670Z,5.05
